Time;durP1;ratioP1;P1;durP2;ratioP2;P2;SDS_P1;SDS_P2;PMS_P1;PMS_P2;Temp;Humidity;BMP_temperature;BMP_pressure;BME280_temperature;BME280_humidity;BME280_pressure;Samples;Min_cycle;Max_cycle;Signal;HPM_P1;HPM_P2
2022/06/29 00:00:24;;;;;;;3.83;3.63;;;18.80;90.90;;;;;;5006465;28;20215;-79
2022/06/29 00:02:51;;;;;;;3.53;3.35;;;18.80;90.30;;;;;;5004906;28;20543;-77
2022/06/29 00:05:21;;;;;;;2.78;2.67;;;18.80;91.40;;;;;;5017345;28;20184;-79
2022/06/29 00:07:47;;;;;;;3.05;2.95;;;18.80;91.10;;;;;;5010959;28;20193;-79
2022/06/29 00:10:14;;;;;;;3.13;3.03;;;18.80;91.10;;;;;;5016684;28;20181;-78
2022/06/29 00:12:41;;;;;;;2.58;2.47;;;18.80;91.40;;;;;;5016229;28;20172;-78
2022/06/29 00:15:07;;;;;;;2.50;2.40;;;18.80;92.00;;;;;;5013552;28;20619;-78
2022/06/29 00:17:34;;;;;;;2.70;2.50;;;18.70;91.80;;;;;;5013451;28;20189;-77
2022/06/29 00:20:02;;;;;;;2.58;2.50;;;18.60;91.00;;;;;;5018907;28;20258;-77
2022/06/29 00:22:28;;;;;;;2.58;2.47;;;18.60;90.80;;;;;;5017198;28;20196;-79
2022/06/29 00:24:54;;;;;;;2.67;2.47;;;18.50;91.90;;;;;;5015357;28;20184;-77
2022/06/29 00:27:20;;;;;;;2.42;2.42;;;18.50;91.50;;;;;;5017745;28;20181;-78
2022/06/29 00:29:46;;;;;;;2.72;2.63;;;18.40;91.40;;;;;;5014973;28;20185;-77
2022/06/29 00:32:12;;;;;;;2.10;2.10;;;18.40;91.60;;;;;;5013383;28;20187;-78
2022/06/29 00:34:38;;;;;;;2.25;2.15;;;18.40;91.80;;;;;;5015390;28;20223;-77
2022/06/29 00:37:05;;;;;;;2.33;2.22;;;18.40;91.60;;;;;;5015121;28;20260;-76
2022/06/29 00:39:30;;;;;;;2.40;2.40;;;18.30;91.30;;;;;;5016157;28;20184;-77
2022/06/29 00:41:56;;;;;;;2.53;2.42;;;18.30;90.90;;;;;;5010452;28;20258;-76
2022/06/29 00:44:22;;;;;;;2.00;2.00;;;18.20;91.10;;;;;;5014008;28;20624;-77
2022/06/29 00:46:51;;;;;;;5.85;2.92;;;18.20;91.50;;;;;;5018474;28;20188;-78
2022/06/29 00:49:18;;;;;;;2.35;2.30;;;18.20;90.70;;;;;;5018141;28;20264;-78
2022/06/29 00:52:08;;;;;;;3.50;2.85;;;18.20;91.20;;;;;;5019351;28;20220;-77
2022/06/29 00:54:46;;;;;;;2.67;2.58;;;18.20;90.50;;;;;;5010825;28;20192;-78
2022/06/29 00:57:19;;;;;;;2.92;2.72;;;18.20;90.30;;;;;;5016186;28;20192;-78
2022/06/29 00:59:47;;;;;;;2.00;2.00;;;18.10;90.50;;;;;;5018066;28;20185;-76
2022/06/29 01:02:16;;;;;;;2.63;2.53;;;18.10;91.20;;;;;;5016814;28;20196;-77
2022/06/29 01:04:43;;;;;;;2.50;2.40;;;18.10;91.00;;;;;;5015884;28;20607;-78
2022/06/29 01:07:11;;;;;;;2.67;2.58;;;18.10;90.90;;;;;;5015835;28;20193;-78
2022/06/29 01:09:38;;;;;;;2.42;2.33;;;18.10;91.10;;;;;;5013922;28;20177;-79
2022/06/29 01:12:04;;;;;;;2.00;2.00;;;18.10;90.70;;;;;;5014390;28;20185;-79
2022/06/29 01:14:30;;;;;;;2.03;2.03;;;18.10;91.00;;;;;;5016020;28;20204;-79
2022/06/29 01:16:56;;;;;;;2.35;2.25;;;18.10;91.30;;;;;;5017275;28;20185;-78
2022/06/29 01:19:22;;;;;;;2.65;2.55;;;18.10;91.50;;;;;;5011312;28;20208;-79
2022/06/29 01:21:51;;;;;;;2.80;2.70;;;18.10;91.30;;;;;;5014494;28;20208;-79
2022/06/29 01:24:18;;;;;;;2.88;2.78;;;18.10;90.70;;;;;;5011204;28;20234;-79
2022/06/29 01:26:44;;;;;;;2.35;2.25;;;18.10;91.00;;;;;;5014327;28;20300;-77
2022/06/29 01:29:10;;;;;;;2.47;2.38;;;18.00;91.10;;;;;;5014375;28;20263;-77
2022/06/29 01:31:35;;;;;;;2.83;2.72;;;18.00;91.00;;;;;;5009935;28;20212;-77
2022/06/29 01:34:02;;;;;;;2.28;2.28;;;18.00;91.00;;;;;;5009453;28;20570;-76
2022/06/29 01:36:27;;;;;;;2.40;2.30;;;18.00;90.90;;;;;;5014003;28;20188;-77
2022/06/29 01:38:53;;;;;;;2.28;2.28;;;18.00;91.30;;;;;;5015024;28;20180;-79
2022/06/29 01:41:19;;;;;;;2.22;2.17;;;18.00;91.40;;;;;;5012276;28;20192;-79
2022/06/29 01:43:45;;;;;;;2.55;2.45;;;18.00;91.60;;;;;;5015004;28;20228;-79
2022/06/29 01:46:10;;;;;;;2.60;2.50;;;18.00;91.30;;;;;;5013501;28;20275;-78
2022/06/29 01:48:36;;;;;;;2.63;2.53;;;18.00;91.60;;;;;;5011610;28;20192;-78
2022/06/29 01:51:02;;;;;;;2.17;2.17;;;18.00;91.60;;;;;;5019057;28;20263;-78
2022/06/29 01:53:28;;;;;;;2.88;2.60;;;18.00;91.70;;;;;;5012586;28;20613;-78
2022/06/29 01:55:54;;;;;;;2.70;2.60;;;18.00;91.80;;;;;;5011327;28;20883;-78
2022/06/29 01:58:20;;;;;;;5.35;2.95;;;18.00;91.30;;;;;;5006529;28;20800;-78
2022/06/29 02:00:45;;;;;;;2.67;2.58;;;18.00;91.50;;;;;;5015198;28;20211;-78
2022/06/29 02:03:11;;;;;;;3.03;2.80;;;17.90;90.90;;;;;;5016943;28;20303;-78
2022/06/29 02:05:37;;;;;;;3.00;2.83;;;17.90;91.80;;;;;;5013427;28;20616;-79
2022/06/29 02:08:03;;;;;;;3.15;2.97;;;17.90;91.30;;;;;;5014876;28;20181;-78
2022/06/29 02:10:29;;;;;;;6.38;2.70;;;17.90;91.30;;;;;;5014118;28;20185;-78
2022/06/29 02:12:55;;;;;;;2.83;2.72;;;17.90;91.40;;;;;;5010840;28;20180;-80
2022/06/29 02:15:23;;;;;;;3.00;2.90;;;17.90;91.60;;;;;;5015712;28;20207;-79
2022/06/29 02:17:50;;;;;;;3.05;2.85;;;17.90;91.80;;;;;;5010639;28;20185;-79
2022/06/29 02:20:15;;;;;;;2.67;2.58;;;17.90;91.80;;;;;;5015822;28;20187;-77
2022/06/29 02:22:41;;;;;;;2.88;2.22;;;17.90;91.70;;;;;;5011522;28;20181;-77
2022/06/29 02:25:08;;;;;;;2.40;2.35;;;17.90;91.70;;;;;;5016215;28;20189;-76
2022/06/29 02:27:37;;;;;;;3.28;3.08;;;17.90;91.40;;;;;;5015418;28;20184;-76
2022/06/29 02:30:03;;;;;;;2.80;2.70;;;17.90;91.80;;;;;;5015021;28;20200;-78
2022/06/29 02:35:13;;;;;;;3.00;2.90;;;17.80;91.80;;;;;;5012767;28;20204;-78
2022/06/29 02:37:39;;;;;;;2.78;2.67;;;17.80;91.70;;;;;;5010636;28;20197;-77
2022/06/29 02:40:05;;;;;;;3.00;2.90;;;17.80;91.90;;;;;;5015251;28;20701;-77
2022/06/29 02:42:30;;;;;;;4.32;2.60;;;17.80;91.70;;;;;;5012359;28;20582;-78
2022/06/29 02:44:56;;;;;;;2.90;2.80;;;17.80;91.50;;;;;;5011512;28;20191;-75
2022/06/29 02:47:22;;;;;;;3.03;2.92;;;17.80;91.70;;;;;;5016419;28;20939;-77
2022/06/29 02:49:47;;;;;;;3.50;3.35;;;17.80;91.80;;;;;;5019435;28;20187;-76
2022/06/29 02:52:13;;;;;;;2.53;2.42;;;17.80;91.40;;;;;;5009340;28;20177;-77
2022/06/29 02:54:39;;;;;;;2.78;2.75;;;17.80;91.50;;;;;;5020225;28;20200;-76
2022/06/29 02:57:04;;;;;;;3.58;3.47;;;17.70;91.40;;;;;;5007145;28;20211;-76
2022/06/29 02:59:30;;;;;;;2.88;2.67;;;17.70;91.60;;;;;;5015251;28;20189;-77
2022/06/29 03:01:56;;;;;;;3.30;3.20;;;17.70;91.80;;;;;;5014790;28;20264;-76
2022/06/29 03:04:22;;;;;;;3.22;3.08;;;17.80;91.90;;;;;;5013765;28;20270;-78
2022/06/29 03:06:48;;;;;;;3.22;2.97;;;17.80;92.00;;;;;;5012060;28;20689;-77
2022/06/29 03:09:13;;;;;;;3.20;3.10;;;17.80;91.80;;;;;;5018571;28;20200;-78
2022/06/29 03:11:39;;;;;;;3.17;3.00;;;17.80;91.50;;;;;;5016730;28;20184;-78
2022/06/29 03:14:05;;;;;;;4.75;3.20;;;17.80;91.70;;;;;;5014395;28;20195;-78
2022/06/29 03:16:30;;;;;;;2.90;2.80;;;17.80;91.70;;;;;;5012030;28;20856;-78
2022/06/29 03:18:56;;;;;;;3.85;3.55;;;17.80;91.80;;;;;;5013156;28;20196;-79
2022/06/29 03:21:22;;;;;;;11.02;3.90;;;17.80;91.70;;;;;;5010184;28;20189;-79
2022/06/29 03:23:47;;;;;;;5.85;5.05;;;17.80;91.90;;;;;;5013383;28;20625;-79
2022/06/29 03:26:13;;;;;;;3.45;3.35;;;17.80;92.10;;;;;;5011618;28;20204;-78
2022/06/29 03:28:39;;;;;;;3.88;3.30;;;17.80;93.00;;;;;;5015025;28;20204;-78
2022/06/29 03:31:05;;;;;;;4.63;4.22;;;17.80;93.00;;;;;;5014102;28;20176;-78
2022/06/29 03:33:31;;;;;;;4.05;3.85;;;17.80;93.80;;;;;;5011674;28;20266;-77
2022/06/29 03:35:57;;;;;;;4.18;3.78;;;17.80;93.30;;;;;;5008657;28;20181;-78
2022/06/29 03:38:23;;;;;;;4.18;3.78;;;17.80;93.50;;;;;;5017952;28;20189;-78
2022/06/29 03:40:51;;;;;;;3.90;3.67;;;17.80;93.20;;;;;;5012235;28;20178;-78
2022/06/29 03:43:17;;;;;;;3.95;3.60;;;17.80;92.90;;;;;;5011620;28;20293;-78
2022/06/29 03:45:43;;;;;;;4.65;4.25;;;17.90;94.00;;;;;;5015862;28;20200;-78
2022/06/29 03:48:09;;;;;;;4.22;4.03;;;17.90;94.00;;;;;;5012801;28;20185;-79
2022/06/29 03:50:34;;;;;;;3.30;3.10;;;18.00;94.20;;;;;;5013136;28;20204;-78
2022/06/29 03:53:00;;;;;;;4.15;3.70;;;18.00;93.70;;;;;;5006936;28;20197;-79
2022/06/29 03:55:26;;;;;;;4.30;3.90;;;18.00;94.20;;;;;;5010218;28;20619;-79
2022/06/29 03:57:52;;;;;;;3.75;3.65;;;18.10;94.10;;;;;;5014123;28;20180;-78
2022/06/29 04:00:17;;;;;;;3.00;2.83;;;18.10;93.50;;;;;;5014727;28;20192;-80
2022/06/29 04:02:43;;;;;;;3.95;3.70;;;18.10;93.40;;;;;;5013815;28;20192;-76
2022/06/29 04:05:09;;;;;;;3.33;3.22;;;18.10;93.60;;;;;;5015691;28;20611;-79
2022/06/29 04:07:35;;;;;;;4.00;3.40;;;18.20;93.70;;;;;;5013891;28;20661;-78
2022/06/29 04:10:01;;;;;;;4.90;4.60;;;18.20;94.20;;;;;;5006425;28;20596;-76
2022/06/29 04:12:28;;;;;;;9.55;5.75;;;18.20;94.10;;;;;;5015486;28;20188;-77
2022/06/29 04:14:54;;;;;;;5.07;4.75;;;18.10;93.70;;;;;;5016093;28;20253;-78
2022/06/29 04:17:19;;;;;;;5.03;4.68;;;18.20;94.00;;;;;;5012107;28;20176;-78
2022/06/29 04:19:45;;;;;;;4.88;4.57;;;18.20;93.80;;;;;;5011038;28;20623;-74
2022/06/29 04:22:11;;;;;;;5.57;5.15;;;18.20;93.50;;;;;;5011200;28;20180;-75
2022/06/29 04:24:36;;;;;;;4.68;4.38;;;18.30;93.70;;;;;;5013216;28;20308;-75
2022/06/29 04:27:02;;;;;;;5.07;4.68;;;18.30;93.30;;;;;;5014519;28;20192;-76
2022/06/29 04:29:28;;;;;;;5.90;4.75;;;18.20;93.20;;;;;;5013880;28;20196;-75
2022/06/29 04:31:54;;;;;;;4.18;3.95;;;18.20;93.40;;;;;;5010363;28;20181;-76
2022/06/29 04:34:19;;;;;;;4.30;3.95;;;18.30;93.10;;;;;;5007895;28;20628;-75
2022/06/29 04:36:45;;;;;;;4.90;4.47;;;18.30;93.10;;;;;;5009866;28;20189;-74
2022/06/29 04:39:11;;;;;;;4.03;3.85;;;18.30;92.90;;;;;;5010884;28;20180;-74
2022/06/29 04:41:37;;;;;;;3.90;3.63;;;18.30;93.10;;;;;;5011937;28;20757;-75
2022/06/29 04:44:02;;;;;;;3.60;3.40;;;18.30;92.90;;;;;;5012081;28;20208;-75
2022/06/29 04:46:28;;;;;;;4.35;3.97;;;18.40;93.30;;;;;;5014082;28;20247;-75
2022/06/29 04:48:58;;;;;;;3.13;3.03;;;18.40;93.00;;;;;;5015142;28;20267;-75
2022/06/29 04:51:26;;;;;;;3.50;3.33;;;18.40;92.80;;;;;;5010126;28;20185;-75
2022/06/29 04:53:56;;;;;;;3.63;3.42;;;18.50;93.00;;;;;;5011151;28;20200;-74
2022/06/29 04:56:30;;;;;;;3.50;3.40;;;18.50;93.20;;;;;;5013028;28;20183;-74
2022/06/29 04:58:57;;;;;;;4.40;4.10;;;18.60;92.50;;;;;;5013075;28;20632;-75
2022/06/29 05:01:24;;;;;;;3.70;3.55;;;18.60;93.20;;;;;;5007558;28;20188;-78
2022/06/29 05:03:51;;;;;;;3.83;3.47;;;18.60;92.70;;;;;;5016246;28;20205;-78
2022/06/29 05:06:18;;;;;;;3.75;3.65;;;18.60;92.80;;;;;;5017283;28;20956;-78
2022/06/29 05:08:43;;;;;;;4.63;4.32;;;18.70;93.10;;;;;;5014612;28;20207;-79
2022/06/29 05:11:10;;;;;;;5.82;5.28;;;18.70;93.30;;;;;;5014982;28;21613;-80
2022/06/29 05:13:35;;;;;;;6.13;5.55;;;18.80;93.40;;;;;;5012483;28;20745;-80
2022/06/29 05:16:01;;;;;;;6.40;5.78;;;18.80;93.40;;;;;;5013531;28;20217;-79
2022/06/29 05:18:28;;;;;;;5.90;5.40;;;18.80;93.50;;;;;;5013789;28;20185;-78
2022/06/29 05:20:54;;;;;;;6.55;5.38;;;18.80;93.20;;;;;;5012646;28;20613;-79
2022/06/29 05:23:20;;;;;;;7.72;5.47;;;18.80;93.10;;;;;;5014079;28;20227;-76
2022/06/29 05:25:46;;;;;;;6.57;6.00;;;18.80;93.00;;;;;;5013546;28;20666;-76
2022/06/29 05:28:13;;;;;;;6.65;5.53;;;18.90;93.30;;;;;;5011610;28;20173;-79
2022/06/29 05:30:38;;;;;;;7.82;5.22;;;18.90;92.90;;;;;;5009931;28;20703;-74
2022/06/29 05:33:05;;;;;;;5.43;4.97;;;18.90;92.80;;;;;;5010252;28;20260;-72
2022/06/29 05:35:33;;;;;;;6.10;4.95;;;18.90;92.70;;;;;;5004903;28;20174;-73
2022/06/29 05:38:00;;;;;;;6.25;5.65;;;19.00;92.70;;;;;;5007291;28;20624;-72
2022/06/29 05:40:26;;;;;;;5.35;4.95;;;19.00;92.60;;;;;;5006429;28;20188;-72
2022/06/29 05:42:52;;;;;;;8.48;5.53;;;19.10;92.50;;;;;;5005349;28;20772;-75
2022/06/29 05:45:18;;;;;;;5.28;4.78;;;19.10;92.40;;;;;;5003749;28;20275;-75
2022/06/29 05:47:44;;;;;;;9.05;6.15;;;19.10;92.70;;;;;;5012496;28;20185;-74
2022/06/29 05:50:10;;;;;;;8.48;5.30;;;19.10;92.20;;;;;;5009042;28;20192;-74
2022/06/29 05:52:37;;;;;;;5.40;4.43;;;19.20;92.50;;;;;;5010350;28;20222;-75
2022/06/29 05:55:04;;;;;;;6.38;5.75;;;19.20;93.10;;;;;;5009450;28;20188;-72
2022/06/29 05:57:29;;;;;;;6.60;5.55;;;19.20;92.70;;;;;;5012288;28;20693;-75
2022/06/29 05:59:55;;;;;;;4.25;4.03;;;19.30;92.60;;;;;;5012007;28;20184;-74
2022/06/29 06:02:21;;;;;;;5.03;4.70;;;19.30;92.60;;;;;;5007341;28;20326;-74
2022/06/29 06:04:47;;;;;;;10.70;6.25;;;19.40;92.60;;;;;;5009882;28;20774;-74
2022/06/29 06:07:13;;;;;;;7.53;5.63;;;19.40;92.40;;;;;;5013623;28;20180;-73
2022/06/29 06:09:39;;;;;;;5.68;5.00;;;19.50;92.20;;;;;;5010487;28;20654;-73
2022/06/29 06:12:04;;;;;;;5.35;4.70;;;19.50;92.20;;;;;;5013987;28;20220;-73
2022/06/29 06:14:30;;;;;;;7.32;5.47;;;19.60;92.10;;;;;;5015169;28;20189;-73
2022/06/29 06:16:56;;;;;;;6.30;5.30;;;19.60;91.90;;;;;;5012202;28;20193;-74
2022/06/29 06:19:22;;;;;;;7.38;6.70;;;19.70;91.70;;;;;;5013082;28;20555;-73
2022/06/29 06:21:47;;;;;;;5.78;5.15;;;19.80;91.20;;;;;;5012356;28;20189;-73
2022/06/29 06:24:13;;;;;;;8.02;5.88;;;19.80;91.00;;;;;;5015268;28;20216;-73
2022/06/29 06:26:39;;;;;;;5.45;4.97;;;19.90;91.10;;;;;;5011087;28;20640;-73
2022/06/29 06:29:04;;;;;;;5.82;5.53;;;19.90;91.00;;;;;;5011295;28;20173;-73
2022/06/29 06:31:31;;;;;;;6.45;5.28;;;20.00;90.90;;;;;;5013392;28;20207;-73
2022/06/29 06:33:57;;;;;;;8.30;5.57;;;20.00;90.80;;;;;;5009726;28;20565;-75
2022/06/29 06:36:22;;;;;;;5.85;5.40;;;20.00;90.60;;;;;;5014092;28;20185;-73
2022/06/29 06:38:48;;;;;;;5.53;5.15;;;20.10;90.50;;;;;;5013582;28;20184;-73
2022/06/29 06:41:23;;;;;;;6.22;5.85;;;20.10;90.10;;;;;;5011950;28;20187;-73
2022/06/29 06:43:54;;;;;;;7.25;6.40;;;20.20;90.10;;;;;;5012081;28;20651;-73
2022/06/29 06:46:21;;;;;;;6.40;5.72;;;20.20;89.90;;;;;;5010666;28;20260;-74
2022/06/29 06:48:48;;;;;;;6.88;5.25;;;20.30;89.60;;;;;;5016947;28;20184;-73
2022/06/29 06:51:14;;;;;;;4.47;4.22;;;20.30;89.70;;;;;;5011343;28;20215;-73
2022/06/29 06:53:40;;;;;;;4.35;4.15;;;20.40;89.60;;;;;;5009098;28;20211;-72
2022/06/29 06:56:09;;;;;;;5.03;4.47;;;20.40;89.60;;;;;;5012812;28;20199;-73
2022/06/29 06:58:38;;;;;;;4.97;4.63;;;20.50;89.60;;;;;;5010525;28;20197;-73
2022/06/29 07:01:05;;;;;;;5.13;4.45;;;20.50;89.20;;;;;;5011241;28;20238;-73
2022/06/29 07:03:31;;;;;;;4.82;4.63;;;20.60;88.90;;;;;;5010575;28;20266;-73
2022/06/29 07:06:00;;;;;;;5.05;3.72;;;20.70;88.80;;;;;;5013569;28;20204;-74
2022/06/29 07:08:27;;;;;;;8.40;4.40;;;20.70;88.60;;;;;;5014845;28;20606;-72
2022/06/29 07:10:53;;;;;;;4.65;4.00;;;20.80;89.00;;;;;;5010610;28;20184;-74
2022/06/29 07:13:19;;;;;;;4.03;3.72;;;20.90;89.00;;;;;;5015882;28;20183;-74
2022/06/29 07:15:46;;;;;;;3.70;3.47;;;20.90;89.00;;;;;;5009327;28;20581;-74
2022/06/29 07:18:12;;;;;;;4.60;4.20;;;21.00;88.70;;;;;;5027221;28;20184;-73
2022/06/29 07:20:37;;;;;;;4.93;4.53;;;21.10;88.00;;;;;;5014788;28;20631;-74
2022/06/29 07:23:03;;;;;;;4.10;3.80;;;21.20;87.40;;;;;;5011091;28;20730;-74
2022/06/29 07:25:28;;;;;;;3.78;3.58;;;21.20;87.60;;;;;;5010475;28;20185;-72
2022/06/29 07:27:54;;;;;;;5.40;3.95;;;21.30;87.40;;;;;;5012615;28;20188;-73
2022/06/29 07:30:20;;;;;;;4.20;3.90;;;21.40;87.10;;;;;;5008803;28;20631;-73
2022/06/29 07:32:45;;;;;;;3.60;3.50;;;21.40;87.10;;;;;;5009744;28;20271;-74
2022/06/29 07:35:11;;;;;;;3.63;3.53;;;21.50;86.80;;;;;;5012463;28;20483;-75
2022/06/29 07:37:37;;;;;;;4.53;4.22;;;21.60;86.10;;;;;;5013502;28;20191;-73
2022/06/29 07:40:03;;;;;;;4.57;4.28;;;21.70;85.60;;;;;;5011034;28;20192;-73
2022/06/29 07:42:31;;;;;;;4.97;4.57;;;21.70;86.00;;;;;;5011964;28;20263;-73
2022/06/29 07:44:56;;;;;;;3.50;3.40;;;21.80;84.60;;;;;;5012463;28;20302;-73
2022/06/29 07:47:22;;;;;;;3.63;3.47;;;21.90;85.10;;;;;;5012528;28;20971;-72
2022/06/29 07:49:48;;;;;;;6.47;3.90;;;21.90;85.40;;;;;;5011516;28;20189;-73
2022/06/29 07:52:13;;;;;;;3.92;3.65;;;22.00;85.10;;;;;;5012920;28;20185;-74
2022/06/29 07:54:39;;;;;;;3.80;3.60;;;22.10;84.70;;;;;;5011924;28;20180;-72
2022/06/29 07:57:04;;;;;;;3.70;3.38;;;22.20;84.50;;;;;;5012881;28;20263;-74
2022/06/29 07:59:30;;;;;;;5.00;4.65;;;22.30;84.00;;;;;;5010258;28;20191;-74
2022/06/29 08:01:56;;;;;;;5.13;4.82;;;22.20;83.10;;;;;;5009824;28;20789;-73
2022/06/29 08:04:21;;;;;;;3.88;3.75;;;22.20;83.50;;;;;;5007626;28;20811;-73
2022/06/29 08:06:47;;;;;;;3.65;3.55;;;22.30;84.20;;;;;;5012810;28;20192;-73
2022/06/29 08:09:13;;;;;;;3.63;3.42;;;22.40;84.10;;;;;;5011201;28;20185;-73
2022/06/29 08:11:39;;;;;;;3.90;3.60;;;22.50;83.90;;;;;;5009082;28;20188;-72
2022/06/29 08:14:04;;;;;;;3.30;3.15;;;22.60;84.00;;;;;;5013736;28;20188;-73
2022/06/29 08:16:30;;;;;;;5.28;3.97;;;22.70;84.70;;;;;;5009464;28;20177;-73
2022/06/29 08:18:55;;;;;;;3.55;3.35;;;22.80;83.90;;;;;;5014036;28;20702;-74
2022/06/29 08:21:21;;;;;;;3.67;3.53;;;22.90;84.20;;;;;;5010336;28;20251;-73
2022/06/29 08:23:48;;;;;;;4.18;3.78;;;23.00;83.40;;;;;;5010680;28;20197;-73
2022/06/29 08:26:14;;;;;;;4.05;3.85;;;23.10;82.70;;;;;;5007866;28;20239;-73
2022/06/29 08:28:39;;;;;;;3.80;3.60;;;23.20;82.40;;;;;;5011368;28;20177;-73
2022/06/29 08:31:06;;;;;;;3.63;3.47;;;23.20;81.80;;;;;;5017169;28;20185;-73
2022/06/29 08:33:31;;;;;;;3.47;3.30;;;23.30;82.20;;;;;;5014169;28;21045;-72
2022/06/29 08:35:57;;;;;;;3.90;3.10;;;23.40;82.50;;;;;;5015815;28;20191;-73
2022/06/29 08:38:23;;;;;;;8.32;2.90;;;23.40;82.60;;;;;;5017698;28;20192;-74
2022/06/29 08:40:49;;;;;;;3.45;3.30;;;23.50;82.50;;;;;;5013172;28;20196;-74
2022/06/29 08:43:17;;;;;;;3.28;3.15;;;23.60;82.90;;;;;;5014244;28;20235;-73
2022/06/29 08:45:45;;;;;;;3.10;3.00;;;23.70;82.20;;;;;;5013047;28;20185;-74
2022/06/29 08:48:13;;;;;;;3.65;3.38;;;23.80;82.70;;;;;;5016019;28;20172;-73
2022/06/29 08:50:40;;;;;;;3.55;3.35;;;23.90;82.20;;;;;;5015165;28;20184;-73
2022/06/29 08:53:09;;;;;;;2.90;2.80;;;24.00;82.00;;;;;;5014322;28;20271;-73
2022/06/29 08:55:40;;;;;;;3.47;2.92;;;24.10;82.20;;;;;;5017645;28;20191;-73
2022/06/29 08:58:08;;;;;;;3.47;3.28;;;24.20;81.50;;;;;;5014409;28;20188;-73
2022/06/29 09:00:37;;;;;;;3.65;3.53;;;24.30;80.60;;;;;;5015492;28;20180;-73
2022/06/29 09:03:05;;;;;;;3.58;3.42;;;24.40;78.90;;;;;;5015392;28;20191;-73
2022/06/29 09:05:34;;;;;;;3.47;3.22;;;24.50;78.50;;;;;;5013407;28;20185;-73
2022/06/29 09:08:00;;;;;;;3.55;3.15;;;24.60;77.50;;;;;;5014517;28;20185;-73
2022/06/29 09:10:29;;;;;;;2.80;2.70;;;24.70;77.80;;;;;;5013884;28;20518;-73
2022/06/29 09:12:57;;;;;;;4.47;2.63;;;24.80;78.10;;;;;;5015208;28;21363;-73
2022/06/29 09:15:38;;;;;;;4.00;2.88;;;24.90;78.70;;;;;;5009908;28;20271;-74
2022/06/29 09:18:21;;;;;;;3.15;2.95;;;25.00;76.00;;;;;;5014357;28;20184;-75
2022/06/29 09:20:53;;;;;;;4.10;3.13;;;25.10;75.70;;;;;;5011529;28;20493;-75
2022/06/29 09:23:19;;;;;;;3.75;3.35;;;25.30;75.70;;;;;;5014027;28;20721;-73
2022/06/29 09:25:45;;;;;;;3.20;3.10;;;25.40;75.00;;;;;;5016073;28;20187;-74
2022/06/29 09:28:27;;;;;;;3.05;2.85;;;25.50;75.90;;;;;;5015288;28;20653;-74
2022/06/29 09:30:55;;;;;;;2.85;2.75;;;25.60;75.70;;;;;;5016390;28;20180;-73
2022/06/29 09:33:26;;;;;;;3.15;2.83;;;25.70;76.50;;;;;;5011284;28;20196;-74
2022/06/29 09:36:07;;;;;;;3.22;3.10;;;25.80;75.70;;;;;;5010934;28;20181;-74
2022/06/29 09:38:34;;;;;;;2.85;2.72;;;26.00;75.60;;;;;;5015411;28;20723;-74
2022/06/29 09:41:09;;;;;;;4.32;3.17;;;26.10;75.40;;;;;;5013752;28;20581;-74
2022/06/29 09:43:37;;;;;;;3.13;3.03;;;26.20;76.50;;;;;;5016246;28;20680;-73
2022/06/29 09:46:04;;;;;;;3.40;3.30;;;26.40;77.20;;;;;;5014158;28;20177;-73
2022/06/29 09:48:32;;;;;;;3.35;3.25;;;26.50;76.70;;;;;;5014047;28;20686;-73
2022/06/29 09:50:58;;;;;;;3.15;2.97;;;26.70;74.60;;;;;;5014528;28;20648;-73
2022/06/29 09:53:37;;;;;;;4.03;3.83;;;26.80;75.60;;;;;;5012925;28;20258;-74
2022/06/29 09:56:05;;;;;;;2.72;2.58;;;27.00;73.00;;;;;;5009364;28;20732;-73
2022/06/29 09:58:46;;;;;;;2.90;2.85;;;27.10;73.00;;;;;;5011628;28;20188;-73
2022/06/29 10:03:58;;;;;;;3.05;2.78;;;27.30;73.70;;;;;;5014202;28;20222;-74
2022/06/29 10:06:24;;;;;;;3.17;3.08;;;27.40;72.40;;;;;;5014340;28;20527;-73
2022/06/29 10:08:54;;;;;;;2.28;2.17;;;27.50;72.50;;;;;;5008613;28;20185;-73
2022/06/29 10:14:41;;;;;;;2.85;2.75;;;27.80;70.20;;;;;;4997785;28;20251;-75
2022/06/29 10:17:31;;;;;;;3.40;3.20;;;28.00;71.00;;;;;;4998425;28;20655;-74
2022/06/29 10:20:20;;;;;;;3.20;2.92;;;28.10;71.70;;;;;;5000802;28;20201;-73
2022/06/29 10:22:46;;;;;;;2.95;2.85;;;28.30;68.20;;;;;;4927039;29;20689;-73
2022/06/29 10:25:13;;;;;;;2.13;2.13;;;28.50;69.80;;;;;;4931535;29;20235;-73
2022/06/29 10:27:59;;;;;;;2.00;2.00;;;28.70;65.70;;;;;;4932655;29;21021;-73
2022/06/29 10:30:28;;;;;;;1.80;1.80;;;28.80;66.50;;;;;;4933664;29;20202;-73
2022/06/29 10:33:29;;;;;;;2.30;2.30;;;29.10;66.70;;;;;;4930923;29;20248;-75
2022/06/29 10:36:06;;;;;;;2.10;2.10;;;29.20;62.70;;;;;;4933260;29;20633;-74
2022/06/29 10:38:47;;;;;;;2.50;2.40;;;29.40;65.00;;;;;;4934060;29;20387;-74
2022/06/29 10:43:07;;;;;;;2.03;2.03;;;29.70;63.10;;;;;;4931269;29;20354;-74
2022/06/29 10:43:58;;;;;;;1.80;1.80;;;29.90;64.90;;;;;;4930127;29;20310;-74
2022/06/29 10:46:24;;;;;;;2.00;1.90;;;30.30;62.90;;;;;;4933468;29;20281;-74
2022/06/29 10:49:19;;;;;;;2.85;2.58;;;30.70;61.30;;;;;;4932803;29;20187;-74
2022/06/29 10:51:48;;;;;;;1.63;1.63;;;31.30;59.70;;;;;;4946658;28;20593;-74
2022/06/29 10:54:25;;;;;;;2.45;2.25;;;31.90;58.60;;;;;;4933943;28;20579;-73
2022/06/29 10:56:51;;;;;;;1.98;1.98;;;32.20;56.40;;;;;;4958283;28;20581;-74
2022/06/29 10:59:39;;;;;;;1.92;1.80;;;32.30;56.90;;;;;;4970251;28;20201;-73
2022/06/29 11:02:15;;;;;;;1.90;1.90;;;32.70;58.20;;;;;;5016148;28;20626;-75
2022/06/29 11:04:42;;;;;;;2.13;2.00;;;33.20;58.20;;;;;;5005225;28;20248;-75
2022/06/29 11:12:52;;;;;;;1.92;1.83;;;34.30;53.70;;;;;;5006225;28;20679;-73
2022/06/29 11:15:42;;;;;;;1.65;1.55;;;34.80;54.50;;;;;;5009824;28;20378;-74
2022/06/29 11:18:08;;;;;;;2.33;1.77;;;35.00;52.40;;;;;;5018394;28;20216;-74
2022/06/29 11:20:34;;;;;;;1.60;1.60;;;35.30;52.40;;;;;;5013668;28;20751;-73
2022/06/29 11:23:00;;;;;;;1.90;1.80;;;35.50;52.00;;;;;;5008638;28;20188;-73
2022/06/29 11:25:26;;;;;;;2.03;2.03;;;35.90;51.40;;;;;;5008007;28;20195;-73
2022/06/29 11:27:52;;;;;;;1.65;1.55;;;36.10;51.80;;;;;;5003487;28;20650;-74
2022/06/29 11:30:22;;;;;;;2.22;2.13;;;36.40;51.90;;;;;;5010050;28;20218;-74
2022/06/29 11:32:50;;;;;;;1.73;1.73;;;36.80;51.30;;;;;;5006567;28;20291;-73
2022/06/29 11:35:23;;;;;;;1.63;1.63;;;37.10;50.80;;;;;;5008822;28;20199;-75
2022/06/29 11:38:02;;;;;;;1.92;1.90;;;37.40;51.10;;;;;;4999051;28;20524;-73
2022/06/29 11:40:36;;;;;;;2.08;1.98;;;37.60;49.90;;;;;;5008032;28;20180;-73
2022/06/29 11:43:09;;;;;;;2.30;2.28;;;38.00;50.10;;;;;;5009138;28;20195;-73
2022/06/29 11:45:44;;;;;;;1.90;1.90;;;38.10;52.40;;;;;;5011824;28;20186;-74
2022/06/29 11:48:23;;;;;;;1.20;1.20;;;38.20;48.40;;;;;;5005400;28;20264;-73
2022/06/29 11:50:52;;;;;;;1.45;1.42;;;38.40;49.90;;;;;;5006675;28;20176;-74
2022/06/29 11:53:44;;;;;;;1.73;1.73;;;38.60;47.10;;;;;;5002711;28;20335;-73
2022/06/29 11:56:15;;;;;;;1.42;1.20;;;38.50;45.80;;;;;;5008767;28;20280;-74
2022/06/29 11:58:44;;;;;;;1.67;1.67;;;38.50;46.60;;;;;;5008213;28;20183;-73
2022/06/29 12:01:11;;;;;;;2.35;2.25;;;38.70;46.90;;;;;;5009364;28;20173;-74
2022/06/29 12:03:37;;;;;;;2.03;1.90;;;38.90;46.20;;;;;;5005836;28;20614;-75
2022/06/29 12:06:03;;;;;;;1.45;1.45;;;39.20;46.90;;;;;;5010628;28;20184;-74
2022/06/29 12:08:30;;;;;;;2.00;1.90;;;39.40;46.10;;;;;;5005882;28;20245;-75
2022/06/29 12:10:56;;;;;;;1.92;1.92;;;39.10;46.90;;;;;;5005750;28;20195;-75
2022/06/29 12:13:23;;;;;;;1.90;1.80;;;39.00;49.40;;;;;;5017202;28;20279;-75
2022/06/29 12:15:49;;;;;;;1.95;1.83;;;39.10;47.70;;;;;;5011575;28;20875;-73
2022/06/29 12:18:16;;;;;;;2.60;1.70;;;39.10;46.50;;;;;;5007138;28;20563;-73
2022/06/29 12:20:43;;;;;;;1.65;1.65;;;39.40;48.80;;;;;;5022409;28;20427;-74
2022/06/29 12:23:09;;;;;;;1.95;1.80;;;39.40;49.10;;;;;;5007991;28;20655;-75
2022/06/29 12:25:35;;;;;;;1.70;1.70;;;39.30;48.30;;;;;;5003897;28;20227;-74
2022/06/29 12:28:02;;;;;;;1.58;1.50;;;39.30;49.10;;;;;;5009962;28;20677;-74
2022/06/29 12:30:29;;;;;;;1.75;1.75;;;39.50;48.40;;;;;;5010383;28;20184;-74
2022/06/29 12:32:54;;;;;;;2.00;1.90;;;39.80;47.60;;;;;;5006401;28;20546;-74
2022/06/29 12:35:20;;;;;;;1.73;1.65;;;40.10;45.70;;;;;;5005679;28;20192;-74
2022/06/29 12:37:46;;;;;;;2.20;2.00;;;40.40;45.20;;;;;;5003770;28;20189;-74
2022/06/29 12:40:12;;;;;;;4.20;1.73;;;40.70;45.40;;;;;;5021214;28;20759;-73
2022/06/29 12:42:39;;;;;;;1.48;1.48;;;41.20;42.70;;;;;;5004086;28;20193;-74
2022/06/29 12:45:06;;;;;;;1.30;1.30;;;41.50;43.60;;;;;;5012946;28;20207;-74
2022/06/29 12:47:31;;;;;;;1.70;1.60;;;41.70;44.20;;;;;;5008391;28;20189;-74
2022/06/29 12:49:57;;;;;;;1.30;1.30;;;42.00;43.20;;;;;;5008956;28;20184;-74
2022/06/29 12:52:23;;;;;;;1.58;1.48;;;42.30;43.30;;;;;;5015493;28;20193;-74
2022/06/29 12:54:49;;;;;;;1.23;1.23;;;42.70;43.70;;;;;;5010154;28;20179;-72
2022/06/29 12:57:18;;;;;;;3.30;1.42;;;43.10;42.50;;;;;;5016569;28;20558;-74
2022/06/29 12:59:43;;;;;;;2.05;1.23;;;43.50;42.70;;;;;;5013514;28;20726;-74
2022/06/29 13:02:10;;;;;;;1.88;1.88;;;43.50;41.40;;;;;;5010598;28;20266;-75
2022/06/29 13:04:35;;;;;;;1.13;1.13;;;43.40;42.00;;;;;;5012914;28;20208;-73